sensor_id;sensor_type;location;lat;lon;timestamp;P1;durP1;ratioP1;P2;durP2;ratioP2
61038;SDS011;46919;45.816;3.104;2024-02-23T00:01:42;9.70;;;1.13;;
61038;SDS011;46919;45.816;3.104;2024-02-23T00:04:08;5.32;;;1.05;;
61038;SDS011;46919;45.816;3.104;2024-02-23T00:06:34;6.60;;;1.58;;
61038;SDS011;46919;45.816;3.104;2024-02-23T00:08:59;6.97;;;1.58;;
61038;SDS011;46919;45.816;3.104;2024-02-23T00:11:25;8.27;;;1.10;;
61038;SDS011;46919;45.816;3.104;2024-02-23T00:13:53;10.40;;;1.23;;
61038;SDS011;46919;45.816;3.104;2024-02-23T00:16:18;10.75;;;1.55;;
61038;SDS011;46919;45.816;3.104;2024-02-23T00:18:44;9.93;;;1.55;;
61038;SDS011;46919;45.816;3.104;2024-02-23T00:21:09;7.78;;;1.20;;
61038;SDS011;46919;45.816;3.104;2024-02-23T00:23:35;9.65;;;1.42;;
61038;SDS011;46919;45.816;3.104;2024-02-23T00:26:01;6.00;;;1.05;;
61038;SDS011;46919;45.816;3.104;2024-02-23T00:28:26;5.10;;;1.10;;
61038;SDS011;46919;45.816;3.104;2024-02-23T00:30:52;9.50;;;1.27;;
61038;SDS011;46919;45.816;3.104;2024-02-23T00:33:17;10.68;;;1.17;;
61038;SDS011;46919;45.816;3.104;2024-02-23T00:35:43;7.90;;;1.20;;
61038;SDS011;46919;45.816;3.104;2024-02-23T00:38:08;5.70;;;1.02;;
61038;SDS011;46919;45.816;3.104;2024-02-23T00:40:34;9.88;;;1.65;;
61038;SDS011;46919;45.816;3.104;2024-02-23T00:42:59;6.97;;;1.20;;
61038;SDS011;46919;45.816;3.104;2024-02-23T00:45:28;10.77;;;1.10;;
61038;SDS011;46919;45.816;3.104;2024-02-23T00:47:53;10.75;;;1.35;;
61038;SDS011;46919;45.816;3.104;2024-02-23T00:50:19;12.00;;;2.63;;
61038;SDS011;46919;45.816;3.104;2024-02-23T00:52:44;5.30;;;1.05;;
61038;SDS011;46919;45.816;3.104;2024-02-23T00:55:10;6.88;;;1.25;;
61038;SDS011;46919;45.816;3.104;2024-02-23T00:57:35;4.72;;;1.05;;
61038;SDS011;46919;45.816;3.104;2024-02-23T01:00:02;6.65;;;1.02;;
61038;SDS011;46919;45.816;3.104;2024-02-23T01:02:30;5.75;;;1.25;;
61038;SDS011;46919;45.816;3.104;2024-02-23T01:04:56;6.43;;;1.33;;
61038;SDS011;46919;45.816;3.104;2024-02-23T01:07:23;10.95;;;1.33;;
61038;SDS011;46919;45.816;3.104;2024-02-23T01:09:49;7.95;;;1.20;;
61038;SDS011;46919;45.816;3.104;2024-02-23T01:12:14;7.82;;;1.08;;
61038;SDS011;46919;45.816;3.104;2024-02-23T01:14:39;7.57;;;1.50;;
61038;SDS011;46919;45.816;3.104;2024-02-23T01:17:06;9.60;;;2.85;;
61038;SDS011;46919;45.816;3.104;2024-02-23T01:19:31;7.15;;;1.20;;
61038;SDS011;46919;45.816;3.104;2024-02-23T01:21:57;7.80;;;1.27;;
61038;SDS011;46919;45.816;3.104;2024-02-23T01:24:28;7.07;;;1.20;;
61038;SDS011;46919;45.816;3.104;2024-02-23T01:26:54;4.70;;;1.05;;
61038;SDS011;46919;45.816;3.104;2024-02-23T01:29:20;6.18;;;1.30;;
61038;SDS011;46919;45.816;3.104;2024-02-23T01:31:47;2.92;;;0.85;;
61038;SDS011;46919;45.816;3.104;2024-02-23T01:34:13;5.97;;;0.98;;
61038;SDS011;46919;45.816;3.104;2024-02-23T01:36:38;10.07;;;1.00;;
61038;SDS011;46919;45.816;3.104;2024-02-23T01:39:04;11.85;;;1.45;;
61038;SDS011;46919;45.816;3.104;2024-02-23T01:41:29;6.68;;;1.05;;
61038;SDS011;46919;45.816;3.104;2024-02-23T01:43:55;5.65;;;1.15;;
61038;SDS011;46919;45.816;3.104;2024-02-23T01:46:20;6.88;;;1.70;;
61038;SDS011;46919;45.816;3.104;2024-02-23T01:48:46;7.18;;;1.08;;
61038;SDS011;46919;45.816;3.104;2024-02-23T01:51:12;6.78;;;1.58;;
61038;SDS011;46919;45.816;3.104;2024-02-23T01:53:37;6.70;;;1.17;;
61038;SDS011;46919;45.816;3.104;2024-02-23T01:56:04;10.77;;;1.77;;
61038;SDS011;46919;45.816;3.104;2024-02-23T01:58:30;6.75;;;1.10;;
61038;SDS011;46919;45.816;3.104;2024-02-23T02:00:56;4.10;;;1.05;;
61038;SDS011;46919;45.816;3.104;2024-02-23T02:03:21;8.18;;;1.50;;
61038;SDS011;46919;45.816;3.104;2024-02-23T02:05:46;7.03;;;1.27;;
61038;SDS011;46919;45.816;3.104;2024-02-23T02:08:14;7.88;;;1.65;;
61038;SDS011;46919;45.816;3.104;2024-02-23T02:10:40;8.18;;;1.02;;
61038;SDS011;46919;45.816;3.104;2024-02-23T02:13:07;7.57;;;1.20;;
61038;SDS011;46919;45.816;3.104;2024-02-23T02:15:33;7.20;;;1.48;;
61038;SDS011;46919;45.816;3.104;2024-02-23T02:17:58;13.80;;;1.67;;
61038;SDS011;46919;45.816;3.104;2024-02-23T02:20:24;7.55;;;1.38;;
61038;SDS011;46919;45.816;3.104;2024-02-23T02:22:51;10.20;;;1.27;;
61038;SDS011;46919;45.816;3.104;2024-02-23T02:25:17;5.70;;;1.10;;
61038;SDS011;46919;45.816;3.104;2024-02-23T02:27:42;6.22;;;1.17;;
61038;SDS011;46919;45.816;3.104;2024-02-23T02:30:10;8.65;;;1.42;;
61038;SDS011;46919;45.816;3.104;2024-02-23T02:32:36;7.10;;;1.77;;
61038;SDS011;46919;45.816;3.104;2024-02-23T02:35:02;3.75;;;0.70;;
61038;SDS011;46919;45.816;3.104;2024-02-23T02:37:27;4.63;;;1.13;;
61038;SDS011;46919;45.816;3.104;2024-02-23T02:39:53;3.65;;;0.95;;
61038;SDS011;46919;45.816;3.104;2024-02-23T02:42:18;5.55;;;1.15;;
61038;SDS011;46919;45.816;3.104;2024-02-23T02:44:43;4.40;;;0.85;;
61038;SDS011;46919;45.816;3.104;2024-02-23T02:47:09;6.57;;;0.88;;
61038;SDS011;46919;45.816;3.104;2024-02-23T02:49:34;6.07;;;0.90;;
61038;SDS011;46919;45.816;3.104;2024-02-23T02:51:59;4.35;;;0.70;;
61038;SDS011;46919;45.816;3.104;2024-02-23T02:54:25;5.35;;;0.70;;
61038;SDS011;46919;45.816;3.104;2024-02-23T02:56:50;5.25;;;0.93;;
61038;SDS011;46919;45.816;3.104;2024-02-23T02:59:19;4.38;;;0.90;;
61038;SDS011;46919;45.816;3.104;2024-02-23T03:01:45;5.25;;;1.15;;
61038;SDS011;46919;45.816;3.104;2024-02-23T03:04:12;8.65;;;1.63;;
61038;SDS011;46919;45.816;3.104;2024-02-23T03:06:37;10.45;;;1.77;;
61038;SDS011;46919;45.816;3.104;2024-02-23T03:09:02;5.75;;;1.40;;
61038;SDS011;46919;45.816;3.104;2024-02-23T03:11:28;6.28;;;1.30;;
61038;SDS011;46919;45.816;3.104;2024-02-23T03:13:53;4.95;;;1.42;;
61038;SDS011;46919;45.816;3.104;2024-02-23T03:16:20;6.65;;;1.30;;
61038;SDS011;46919;45.816;3.104;2024-02-23T03:18:46;5.65;;;1.00;;
61038;SDS011;46919;45.816;3.104;2024-02-23T03:21:11;9.13;;;1.55;;
61038;SDS011;46919;45.816;3.104;2024-02-23T03:23:39;6.13;;;1.58;;
61038;SDS011;46919;45.816;3.104;2024-02-23T03:26:06;7.57;;;1.25;;
61038;SDS011;46919;45.816;3.104;2024-02-23T03:28:32;7.93;;;1.50;;
61038;SDS011;46919;45.816;3.104;2024-02-23T03:30:57;5.32;;;2.00;;
61038;SDS011;46919;45.816;3.104;2024-02-23T03:33:22;7.93;;;2.15;;
61038;SDS011;46919;45.816;3.104;2024-02-23T03:35:48;5.13;;;1.80;;
61038;SDS011;46919;45.816;3.104;2024-02-23T03:38:13;8.88;;;1.33;;
61038;SDS011;46919;45.816;3.104;2024-02-23T03:40:38;6.15;;;1.20;;
61038;SDS011;46919;45.816;3.104;2024-02-23T03:43:04;6.65;;;1.30;;
61038;SDS011;46919;45.816;3.104;2024-02-23T03:45:30;4.97;;;1.08;;
61038;SDS011;46919;45.816;3.104;2024-02-23T03:47:56;5.35;;;0.95;;
61038;SDS011;46919;45.816;3.104;2024-02-23T03:50:21;5.38;;;0.98;;
61038;SDS011;46919;45.816;3.104;2024-02-23T03:52:47;5.93;;;0.90;;
61038;SDS011;46919;45.816;3.104;2024-02-23T03:55:12;5.90;;;1.27;;
61038;SDS011;46919;45.816;3.104;2024-02-23T03:57:37;4.38;;;1.17;;
61038;SDS011;46919;45.816;3.104;2024-02-23T04:00:03;7.57;;;1.10;;
61038;SDS011;46919;45.816;3.104;2024-02-23T04:02:29;2.92;;;1.08;;
61038;SDS011;46919;45.816;3.104;2024-02-23T04:04:54;8.45;;;1.50;;
61038;SDS011;46919;45.816;3.104;2024-02-23T04:07:20;4.25;;;0.98;;
61038;SDS011;46919;45.816;3.104;2024-02-23T04:09:45;8.45;;;1.63;;
61038;SDS011;46919;45.816;3.104;2024-02-23T04:12:17;5.50;;;1.23;;
61038;SDS011;46919;45.816;3.104;2024-02-23T04:14:43;5.68;;;1.50;;
61038;SDS011;46919;45.816;3.104;2024-02-23T04:17:08;5.53;;;1.25;;
61038;SDS011;46919;45.816;3.104;2024-02-23T04:19:33;3.80;;;1.23;;
61038;SDS011;46919;45.816;3.104;2024-02-23T04:21:59;5.53;;;1.30;;
61038;SDS011;46919;45.816;3.104;2024-02-23T04:24:24;4.82;;;1.08;;
61038;SDS011;46919;45.816;3.104;2024-02-23T04:26:49;6.03;;;1.10;;
61038;SDS011;46919;45.816;3.104;2024-02-23T04:29:15;5.60;;;0.88;;
61038;SDS011;46919;45.816;3.104;2024-02-23T04:31:40;6.32;;;0.85;;
61038;SDS011;46919;45.816;3.104;2024-02-23T04:34:05;5.53;;;1.17;;
61038;SDS011;46919;45.816;3.104;2024-02-23T04:36:31;7.78;;;0.98;;
61038;SDS011;46919;45.816;3.104;2024-02-23T04:38:56;6.65;;;1.00;;
61038;SDS011;46919;45.816;3.104;2024-02-23T04:41:21;5.47;;;0.80;;
61038;SDS011;46919;45.816;3.104;2024-02-23T04:43:47;4.97;;;0.80;;
61038;SDS011;46919;45.816;3.104;2024-02-23T04:46:12;5.00;;;0.85;;
61038;SDS011;46919;45.816;3.104;2024-02-23T04:48:38;4.18;;;1.00;;
61038;SDS011;46919;45.816;3.104;2024-02-23T04:51:04;13.15;;;2.50;;
61038;SDS011;46919;45.816;3.104;2024-02-23T04:53:29;6.47;;;0.98;;
61038;SDS011;46919;45.816;3.104;2024-02-23T04:55:55;2.72;;;0.90;;
61038;SDS011;46919;45.816;3.104;2024-02-23T04:58:20;8.77;;;1.10;;
61038;SDS011;46919;45.816;3.104;2024-02-23T05:00:46;5.85;;;1.45;;
61038;SDS011;46919;45.816;3.104;2024-02-23T05:03:11;7.10;;;1.13;;
61038;SDS011;46919;45.816;3.104;2024-02-23T05:05:36;10.35;;;1.90;;
61038;SDS011;46919;45.816;3.104;2024-02-23T05:08:02;5.80;;;1.10;;
61038;SDS011;46919;45.816;3.104;2024-02-23T05:10:28;6.00;;;1.10;;
61038;SDS011;46919;45.816;3.104;2024-02-23T05:12:53;5.15;;;1.05;;
61038;SDS011;46919;45.816;3.104;2024-02-23T05:15:18;4.35;;;0.77;;
61038;SDS011;46919;45.816;3.104;2024-02-23T05:17:44;5.70;;;0.80;;
61038;SDS011;46919;45.816;3.104;2024-02-23T05:20:09;8.65;;;1.15;;
61038;SDS011;46919;45.816;3.104;2024-02-23T05:22:36;6.53;;;2.08;;
61038;SDS011;46919;45.816;3.104;2024-02-23T05:25:01;8.07;;;1.30;;
61038;SDS011;46919;45.816;3.104;2024-02-23T05:27:27;8.05;;;1.90;;
61038;SDS011;46919;45.816;3.104;2024-02-23T05:29:53;5.88;;;1.50;;
61038;SDS011;46919;45.816;3.104;2024-02-23T05:32:18;7.70;;;1.30;;
61038;SDS011;46919;45.816;3.104;2024-02-23T05:34:44;7.72;;;2.17;;
61038;SDS011;46919;45.816;3.104;2024-02-23T05:37:10;6.22;;;1.65;;
61038;SDS011;46919;45.816;3.104;2024-02-23T05:39:36;6.60;;;1.40;;
61038;SDS011;46919;45.816;3.104;2024-02-23T05:42:03;4.38;;;0.80;;
61038;SDS011;46919;45.816;3.104;2024-02-23T05:44:29;5.57;;;0.70;;
61038;SDS011;46919;45.816;3.104;2024-02-23T05:46:54;4.18;;;1.10;;
61038;SDS011;46919;45.816;3.104;2024-02-23T05:49:19;9.82;;;1.80;;
61038;SDS011;46919;45.816;3.104;2024-02-23T05:51:45;5.55;;;1.17;;
61038;SDS011;46919;45.816;3.104;2024-02-23T05:54:10;3.63;;;0.95;;
61038;SDS011;46919;45.816;3.104;2024-02-23T05:56:35;2.13;;;0.52;;
61038;SDS011;46919;45.816;3.104;2024-02-23T05:59:02;4.70;;;0.93;;
61038;SDS011;46919;45.816;3.104;2024-02-23T06:01:28;3.47;;;1.00;;
61038;SDS011;46919;45.816;3.104;2024-02-23T06:03:53;3.13;;;0.93;;
61038;SDS011;46919;45.816;3.104;2024-02-23T06:06:20;3.30;;;0.88;;
61038;SDS011;46919;45.816;3.104;2024-02-23T06:08:45;6.05;;;1.20;;
61038;SDS011;46919;45.816;3.104;2024-02-23T06:11:11;5.10;;;1.52;;
61038;SDS011;46919;45.816;3.104;2024-02-23T06:13:37;4.03;;;0.85;;
61038;SDS011;46919;45.816;3.104;2024-02-23T06:16:03;2.17;;;0.70;;
61038;SDS011;46919;45.816;3.104;2024-02-23T06:18:29;1.63;;;0.77;;
61038;SDS011;46919;45.816;3.104;2024-02-23T06:20:54;3.95;;;0.90;;
61038;SDS011;46919;45.816;3.104;2024-02-23T06:23:20;4.35;;;1.25;;
61038;SDS011;46919;45.816;3.104;2024-02-23T06:25:47;7.18;;;1.65;;
61038;SDS011;46919;45.816;3.104;2024-02-23T06:28:12;5.28;;;1.60;;
61038;SDS011;46919;45.816;3.104;2024-02-23T06:30:37;2.28;;;0.80;;
61038;SDS011;46919;45.816;3.104;2024-02-23T06:33:03;2.05;;;0.35;;
61038;SDS011;46919;45.816;3.104;2024-02-23T06:35:29;3.30;;;0.70;;
61038;SDS011;46919;45.816;3.104;2024-02-23T06:37:54;2.78;;;0.55;;
61038;SDS011;46919;45.816;3.104;2024-02-23T06:40:20;2.67;;;0.70;;
61038;SDS011;46919;45.816;3.104;2024-02-23T06:42:45;2.47;;;0.80;;
61038;SDS011;46919;45.816;3.104;2024-02-23T06:45:11;2.13;;;0.68;;
61038;SDS011;46919;45.816;3.104;2024-02-23T06:47:36;4.30;;;0.43;;
61038;SDS011;46919;45.816;3.104;2024-02-23T06:50:04;3.35;;;0.70;;
61038;SDS011;46919;45.816;3.104;2024-02-23T06:52:30;1.85;;;0.60;;
61038;SDS011;46919;45.816;3.104;2024-02-23T06:54:57;3.00;;;0.60;;
61038;SDS011;46919;45.816;3.104;2024-02-23T06:57:22;3.10;;;0.60;;
61038;SDS011;46919;45.816;3.104;2024-02-23T06:59:50;4.85;;;0.80;;
61038;SDS011;46919;45.816;3.104;2024-02-23T07:02:15;3.53;;;1.00;;
61038;SDS011;46919;45.816;3.104;2024-02-23T07:04:41;4.68;;;0.90;;
61038;SDS011;46919;45.816;3.104;2024-02-23T07:07:06;2.60;;;0.75;;
61038;SDS011;46919;45.816;3.104;2024-02-23T07:09:32;4.55;;;0.82;;
61038;SDS011;46919;45.816;3.104;2024-02-23T07:11:58;27.13;;;22.33;;
61038;SDS011;46919;45.816;3.104;2024-02-23T07:14:23;6.80;;;4.32;;
61038;SDS011;46919;45.816;3.104;2024-02-23T07:16:49;10.38;;;2.80;;
61038;SDS011;46919;45.816;3.104;2024-02-23T07:19:14;7.78;;;2.25;;
61038;SDS011;46919;45.816;3.104;2024-02-23T07:21:40;3.53;;;0.50;;
61038;SDS011;46919;45.816;3.104;2024-02-23T07:24:05;2.38;;;0.40;;
61038;SDS011;46919;45.816;3.104;2024-02-23T07:26:31;3.70;;;0.60;;
61038;SDS011;46919;45.816;3.104;2024-02-23T07:28:56;1.85;;;0.30;;
61038;SDS011;46919;45.816;3.104;2024-02-23T07:31:22;2.53;;;0.60;;
61038;SDS011;46919;45.816;3.104;2024-02-23T07:33:47;0.95;;;0.20;;
61038;SDS011;46919;45.816;3.104;2024-02-23T07:36:13;2.63;;;0.40;;
61038;SDS011;46919;45.816;3.104;2024-02-23T07:38:42;0.95;;;0.15;;
61038;SDS011;46919;45.816;3.104;2024-02-23T07:41:09;3.95;;;0.20;;
61038;SDS011;46919;45.816;3.104;2024-02-23T07:43:35;2.17;;;0.28;;
61038;SDS011;46919;45.816;3.104;2024-02-23T07:46:01;0.80;;;0.30;;
61038;SDS011;46919;45.816;3.104;2024-02-23T07:48:27;1.98;;;0.43;;
61038;SDS011;46919;45.816;3.104;2024-02-23T07:50:53;0.68;;;0.20;;
61038;SDS011;46919;45.816;3.104;2024-02-23T07:53:18;0.60;;;0.13;;
61038;SDS011;46919;45.816;3.104;2024-02-23T07:55:44;2.85;;;0.43;;
61038;SDS011;46919;45.816;3.104;2024-02-23T07:58:09;1.40;;;0.40;;
61038;SDS011;46919;45.816;3.104;2024-02-23T08:00:34;3.10;;;0.60;;
61038;SDS011;46919;45.816;3.104;2024-02-23T08:03:03;1.30;;;0.40;;
61038;SDS011;46919;45.816;3.104;2024-02-23T08:05:28;1.70;;;0.50;;
61038;SDS011;46919;45.816;3.104;2024-02-23T08:07:53;3.55;;;1.10;;
61038;SDS011;46919;45.816;3.104;2024-02-23T08:10:19;3.55;;;0.55;;
61038;SDS011;46919;45.816;3.104;2024-02-23T08:12:45;4.65;;;1.10;;
61038;SDS011;46919;45.816;3.104;2024-02-23T08:15:11;3.40;;;1.00;;
61038;SDS011;46919;45.816;3.104;2024-02-23T08:17:37;3.13;;;0.80;;
61038;SDS011;46919;45.816;3.104;2024-02-23T08:20:02;4.25;;;0.90;;
61038;SDS011;46919;45.816;3.104;2024-02-23T08:22:29;6.07;;;1.42;;
61038;SDS011;46919;45.816;3.104;2024-02-23T08:24:54;7.57;;;1.30;;
61038;SDS011;46919;45.816;3.104;2024-02-23T08:27:20;4.35;;;0.95;;
61038;SDS011;46919;45.816;3.104;2024-02-23T08:29:45;4.57;;;1.13;;
61038;SDS011;46919;45.816;3.104;2024-02-23T08:32:10;4.80;;;1.10;;
61038;SDS011;46919;45.816;3.104;2024-02-23T08:34:36;2.78;;;1.10;;
61038;SDS011;46919;45.816;3.104;2024-02-23T08:37:01;3.63;;;1.33;;
61038;SDS011;46919;45.816;3.104;2024-02-23T08:39:27;4.82;;;1.30;;
61038;SDS011;46919;45.816;3.104;2024-02-23T08:41:53;5.20;;;0.80;;
61038;SDS011;46919;45.816;3.104;2024-02-23T08:44:19;0.77;;;0.35;;
61038;SDS011;46919;45.816;3.104;2024-02-23T08:46:45;2.78;;;0.63;;
61038;SDS011;46919;45.816;3.104;2024-02-23T08:49:10;2.60;;;0.70;;
61038;SDS011;46919;45.816;3.104;2024-02-23T08:51:36;5.00;;;0.70;;
61038;SDS011;46919;45.816;3.104;2024-02-23T08:54:02;2.92;;;1.13;;
61038;SDS011;46919;45.816;3.104;2024-02-23T08:56:29;2.70;;;0.40;;
61038;SDS011;46919;45.816;3.104;2024-02-23T08:58:55;2.65;;;0.45;;
61038;SDS011;46919;45.816;3.104;2024-02-23T09:01:21;1.42;;;0.70;;
61038;SDS011;46919;45.816;3.104;2024-02-23T09:03:46;3.90;;;0.95;;
61038;SDS011;46919;45.816;3.104;2024-02-23T09:06:11;1.50;;;0.75;;
61038;SDS011;46919;45.816;3.104;2024-02-23T09:08:37;3.15;;;0.70;;
61038;SDS011;46919;45.816;3.104;2024-02-23T09:11:03;1.05;;;0.40;;
61038;SDS011;46919;45.816;3.104;2024-02-23T09:13:28;3.08;;;1.15;;
61038;SDS011;46919;45.816;3.104;2024-02-23T09:15:55;0.95;;;0.60;;
61038;SDS011;46919;45.816;3.104;2024-02-23T09:18:20;0.40;;;0.30;;
61038;SDS011;46919;45.816;3.104;2024-02-23T09:20:46;0.43;;;0.25;;
61038;SDS011;46919;45.816;3.104;2024-02-23T09:23:11;1.25;;;0.88;;
61038;SDS011;46919;45.816;3.104;2024-02-23T09:25:37;3.67;;;0.60;;
61038;SDS011;46919;45.816;3.104;2024-02-23T09:28:03;4.20;;;0.93;;
61038;SDS011;46919;45.816;3.104;2024-02-23T09:30:28;3.30;;;0.85;;
61038;SDS011;46919;45.816;3.104;2024-02-23T09:32:53;2.83;;;0.80;;
61038;SDS011;46919;45.816;3.104;2024-02-23T09:35:19;2.40;;;0.70;;
61038;SDS011;46919;45.816;3.104;2024-02-23T09:37:45;2.47;;;0.70;;
61038;SDS011;46919;45.816;3.104;2024-02-23T09:40:10;0.63;;;0.38;;
61038;SDS011;46919;45.816;3.104;2024-02-23T09:42:36;1.58;;;0.40;;
61038;SDS011;46919;45.816;3.104;2024-02-23T09:45:03;1.67;;;0.60;;
61038;SDS011;46919;45.816;3.104;2024-02-23T09:47:30;0.65;;;0.30;;
61038;SDS011;46919;45.816;3.104;2024-02-23T09:49:56;1.00;;;0.30;;
61038;SDS011;46919;45.816;3.104;2024-02-23T09:52:22;0.40;;;0.28;;
61038;SDS011;46919;45.816;3.104;2024-02-23T09:54:48;0.57;;;0.20;;
61038;SDS011;46919;45.816;3.104;2024-02-23T09:57:14;0.82;;;0.22;;
61038;SDS011;46919;45.816;3.104;2024-02-23T09:59:41;0.90;;;0.40;;
61038;SDS011;46919;45.816;3.104;2024-02-23T10:02:09;0.10;;;0.10;;
61038;SDS011;46919;45.816;3.104;2024-02-23T10:04:39;0.20;;;0.10;;
61038;SDS011;46919;45.816;3.104;2024-02-23T10:07:06;0.38;;;0.10;;
61038;SDS011;46919;45.816;3.104;2024-02-23T10:09:32;0.00;;;0.00;;
61038;SDS011;46919;45.816;3.104;2024-02-23T10:11:57;1.50;;;0.10;;
61038;SDS011;46919;45.816;3.104;2024-02-23T10:14:23;1.30;;;0.10;;
61038;SDS011;46919;45.816;3.104;2024-02-23T10:16:48;0.30;;;0.10;;
61038;SDS011;46919;45.816;3.104;2024-02-23T10:19:21;0.35;;;0.10;;
61038;SDS011;46919;45.816;3.104;2024-02-23T10:21:47;0.60;;;0.22;;
61038;SDS011;46919;45.816;3.104;2024-02-23T10:24:16;1.48;;;0.20;;
61038;SDS011;46919;45.816;3.104;2024-02-23T10:26:42;0.30;;;0.30;;
61038;SDS011;46919;45.816;3.104;2024-02-23T10:29:07;0.55;;;0.10;;
61038;SDS011;46919;45.816;3.104;2024-02-23T10:31:34;0.82;;;0.35;;
61038;SDS011;46919;45.816;3.104;2024-02-23T10:34:07;0.65;;;0.25;;
61038;SDS011;46919;45.816;3.104;2024-02-23T10:39:05;0.45;;;0.10;;
61038;SDS011;46919;45.816;3.104;2024-02-23T10:41:34;1.15;;;0.10;;
61038;SDS011;46919;45.816;3.104;2024-02-23T10:44:01;1.35;;;0.20;;
61038;SDS011;46919;45.816;3.104;2024-02-23T10:46:28;1.55;;;0.13;;
61038;SDS011;46919;45.816;3.104;2024-02-23T10:48:55;0.60;;;0.10;;
61038;SDS011;46919;45.816;3.104;2024-02-23T10:51:21;1.52;;;0.20;;
61038;SDS011;46919;45.816;3.104;2024-02-23T10:53:48;0.43;;;0.10;;
61038;SDS011;46919;45.816;3.104;2024-02-23T10:56:14;0.93;;;0.10;;
61038;SDS011;46919;45.816;3.104;2024-02-23T10:58:40;0.90;;;0.10;;
61038;SDS011;46919;45.816;3.104;2024-02-23T11:01:06;0.55;;;0.10;;
61038;SDS011;46919;45.816;3.104;2024-02-23T11:03:34;1.45;;;0.25;;
61038;SDS011;46919;45.816;3.104;2024-02-23T11:06:02;1.23;;;0.10;;
61038;SDS011;46919;45.816;3.104;2024-02-23T11:08:32;0.30;;;0.00;;
61038;SDS011;46919;45.816;3.104;2024-02-23T11:10:57;0.03;;;0.00;;
61038;SDS011;46919;45.816;3.104;2024-02-23T11:13:35;1.20;;;0.00;;
61038;SDS011;46919;45.816;3.104;2024-02-23T11:16:01;1.35;;;0.17;;
61038;SDS011;46919;45.816;3.104;2024-02-23T11:18:28;0.10;;;0.10;;
61038;SDS011;46919;45.816;3.104;2024-02-23T11:21:02;0.00;;;0.00;;
61038;SDS011;46919;45.816;3.104;2024-02-23T11:26:09;0.05;;;0.00;;
61038;SDS011;46919;45.816;3.104;2024-02-23T11:28:42;0.30;;;0.00;;
61038;SDS011;46919;45.816;3.104;2024-02-23T11:31:25;0.25;;;0.10;;
61038;SDS011;46919;45.816;3.104;2024-02-23T11:33:54;0.00;;;0.00;;
61038;SDS011;46919;45.816;3.104;2024-02-23T11:36:30;0.05;;;0.00;;
61038;SDS011;46919;45.816;3.104;2024-02-23T11:38:59;0.17;;;0.10;;
61038;SDS011;46919;45.816;3.104;2024-02-23T11:41:25;0.20;;;0.10;;
61038;SDS011;46919;45.816;3.104;2024-02-23T11:43:52;0.15;;;0.00;;
61038;SDS011;46919;45.816;3.104;2024-02-23T11:46:19;0.60;;;0.25;;
61038;SDS011;46919;45.816;3.104;2024-02-23T11:48:45;0.40;;;0.10;;
61038;SDS011;46919;45.816;3.104;2024-02-23T11:51:14;0.63;;;0.20;;
61038;SDS011;46919;45.816;3.104;2024-02-23T11:53:40;3.40;;;0.75;;
61038;SDS011;46919;45.816;3.104;2024-02-23T11:56:05;0.43;;;0.20;;
61038;SDS011;46919;45.816;3.104;2024-02-23T11:58:34;8.20;;;2.67;;
61038;SDS011;46919;45.816;3.104;2024-02-23T12:01:00;2.35;;;0.70;;
61038;SDS011;46919;45.816;3.104;2024-02-23T12:03:28;1.67;;;0.30;;
61038;SDS011;46919;45.816;3.104;2024-02-23T12:05:55;1.92;;;0.20;;
61038;SDS011;46919;45.816;3.104;2024-02-23T12:08:22;0.22;;;0.10;;
61038;SDS011;46919;45.816;3.104;2024-02-23T12:10:49;0.30;;;0.10;;
61038;SDS011;46919;45.816;3.104;2024-02-23T12:13:14;0.30;;;0.00;;
61038;SDS011;46919;45.816;3.104;2024-02-23T12:15:40;0.63;;;0.10;;
61038;SDS011;46919;45.816;3.104;2024-02-23T12:18:05;0.13;;;0.10;;
61038;SDS011;46919;45.816;3.104;2024-02-23T12:20:33;0.50;;;0.10;;
61038;SDS011;46919;45.816;3.104;2024-02-23T12:23:00;1.13;;;0.08;;
61038;SDS011;46919;45.816;3.104;2024-02-23T12:25:26;0.52;;;0.10;;
61038;SDS011;46919;45.816;3.104;2024-02-23T12:27:55;0.30;;;0.03;;
61038;SDS011;46919;45.816;3.104;2024-02-23T12:30:22;0.00;;;0.00;;
61038;SDS011;46919;45.816;3.104;2024-02-23T12:32:47;0.95;;;0.10;;
61038;SDS011;46919;45.816;3.104;2024-02-23T12:35:14;0.35;;;0.00;;
61038;SDS011;46919;45.816;3.104;2024-02-23T12:37:40;0.57;;;0.10;;
61038;SDS011;46919;45.816;3.104;2024-02-23T12:40:06;0.00;;;0.00;;
61038;SDS011;46919;45.816;3.104;2024-02-23T12:42:32;0.00;;;0.00;;
61038;SDS011;46919;45.816;3.104;2024-02-23T12:44:58;0.10;;;0.00;;
61038;SDS011;46919;45.816;3.104;2024-02-23T12:47:23;0.30;;;0.17;;
61038;SDS011;46919;45.816;3.104;2024-02-23T12:49:49;0.20;;;0.10;;
61038;SDS011;46919;45.816;3.104;2024-02-23T12:52:14;0.10;;;0.10;;
61038;SDS011;46919;45.816;3.104;2024-02-23T12:54:39;0.20;;;0.10;;
61038;SDS011;46919;45.816;3.104;2024-02-23T12:57:06;0.00;;;0.00;;
61038;SDS011;46919;45.816;3.104;2024-02-23T12:59:32;0.30;;;0.17;;
61038;SDS011;46919;45.816;3.104;2024-02-23T13:01:57;0.20;;;0.10;;
61038;SDS011;46919;45.816;3.104;2024-02-23T13:04:23;0.00;;;0.00;;
61038;SDS011;46919;45.816;3.104;2024-02-23T13:06:48;0.98;;;0.10;;
61038;SDS011;46919;45.816;3.104;2024-02-23T13:09:14;0.85;;;0.15;;
61038;SDS011;46919;45.816;3.104;2024-02-23T13:11:39;0.00;;;0.00;;
61038;SDS011;46919;45.816;3.104;2024-02-23T13:14:05;0.75;;;0.17;;
61038;SDS011;46919;45.816;3.104;2024-02-23T13:16:31;0.17;;;0.15;;
61038;SDS011;46919;45.816;3.104;2024-02-23T13:18:56;0.75;;;0.10;;
61038;SDS011;46919;45.816;3.104;2024-02-23T13:21:22;0.10;;;0.10;;
61038;SDS011;46919;45.816;3.104;2024-02-23T13:23:49;0.00;;;0.00;;
61038;SDS011;46919;45.816;3.104;2024-02-23T13:26:14;0.30;;;0.15;;
61038;SDS011;46919;45.816;3.104;2024-02-23T13:28:41;0.32;;;0.10;;
61038;SDS011;46919;45.816;3.104;2024-02-23T13:31:07;0.13;;;0.10;;
61038;SDS011;46919;45.816;3.104;2024-02-23T13:33:32;0.10;;;0.10;;
61038;SDS011;46919;45.816;3.104;2024-02-23T13:35:58;0.10;;;0.00;;
61038;SDS011;46919;45.816;3.104;2024-02-23T13:38:23;1.02;;;0.10;;
61038;SDS011;46919;45.816;3.104;2024-02-23T13:40:49;0.08;;;0.08;;
61038;SDS011;46919;45.816;3.104;2024-02-23T13:43:15;0.30;;;0.08;;
61038;SDS011;46919;45.816;3.104;2024-02-23T13:45:50;0.15;;;0.08;;
61038;SDS011;46919;45.816;3.104;2024-02-23T13:48:16;0.30;;;0.10;;
61038;SDS011;46919;45.816;3.104;2024-02-23T13:50:43;0.00;;;0.00;;
61038;SDS011;46919;45.816;3.104;2024-02-23T13:53:10;0.00;;;0.00;;
61038;SDS011;46919;45.816;3.104;2024-02-23T13:55:36;0.60;;;0.22;;
61038;SDS011;46919;45.816;3.104;2024-02-23T13:58:02;2.08;;;0.52;;
61038;SDS011;46919;45.816;3.104;2024-02-23T14:00:27;1.15;;;0.22;;
61038;SDS011;46919;45.816;3.104;2024-02-23T14:02:52;0.17;;;0.10;;
61038;SDS011;46919;45.816;3.104;2024-02-23T14:05:18;0.45;;;0.10;;
61038;SDS011;46919;45.816;3.104;2024-02-23T14:07:44;0.10;;;0.10;;
61038;SDS011;46919;45.816;3.104;2024-02-23T14:10:09;0.20;;;0.00;;
61038;SDS011;46919;45.816;3.104;2024-02-23T14:12:35;0.30;;;0.00;;
61038;SDS011;46919;45.816;3.104;2024-02-23T14:15:01;0.00;;;0.00;;
61038;SDS011;46919;45.816;3.104;2024-02-23T14:17:26;0.50;;;0.30;;
61038;SDS011;46919;45.816;3.104;2024-02-23T14:19:52;0.50;;;0.20;;
61038;SDS011;46919;45.816;3.104;2024-02-23T14:22:17;0.20;;;0.20;;
61038;SDS011;46919;45.816;3.104;2024-02-23T14:24:43;0.93;;;0.28;;
61038;SDS011;46919;45.816;3.104;2024-02-23T14:27:08;0.20;;;0.10;;
61038;SDS011;46919;45.816;3.104;2024-02-23T14:29:33;0.20;;;0.10;;
61038;SDS011;46919;45.816;3.104;2024-02-23T14:31:59;1.38;;;0.45;;
61038;SDS011;46919;45.816;3.104;2024-02-23T14:34:26;0.75;;;0.38;;
61038;SDS011;46919;45.816;3.104;2024-02-23T14:36:52;0.40;;;0.13;;
61038;SDS011;46919;45.816;3.104;2024-02-23T14:39:17;0.50;;;0.13;;
61038;SDS011;46919;45.816;3.104;2024-02-23T14:41:43;0.38;;;0.10;;
61038;SDS011;46919;45.816;3.104;2024-02-23T14:44:09;0.40;;;0.10;;
61038;SDS011;46919;45.816;3.104;2024-02-23T14:46:34;0.10;;;0.10;;